NO WARNINGS Aviation Weather Forecast – Solomon Islands Meteorological Services

Meteorological Division | Solomon Islands Government

Aviation Weather Forecast

FTNG31 AGGG 060510
TAF AGGH 060510Z 0606/0706 VRB03KT 9999 FEW018
T 30 28 26 25 Q 1004 1006 1007 1005
TAF3=

TAF AGGM 060510Z 0606/0706 VRB03KT 9999 FEW018 SCT028 BKN100
Q 1004 1006 1007 1005
TAF3=

TAF AGGN 060510Z 0606/0706 23006KT 9999 FEW018 SCT028 BKN100
TAF3=

Our website use cookies to improve and personalize your experience and to display advertisements(if any). Our website may also include cookies from third parties like Google Adsense, Google Analytics, Youtube. By using the website, you consent to the use of cookies. We have updated our Privacy Policy. Please click on the button to check our Privacy Policy.